createdAt,value
2018-07-31T00:01:32.066Z,6.87
2018-07-31T00:04:00.024Z,5.73
2018-07-31T00:06:27.587Z,5.13
2018-07-31T00:08:56.099Z,4.90
2018-07-31T00:11:23.663Z,5.23
2018-07-31T00:13:51.205Z,5.03
2018-07-31T00:16:18.696Z,5.60
2018-07-31T00:18:46.210Z,5.60
2018-07-31T00:21:14.824Z,6.23
2018-07-31T00:23:43.492Z,5.90
2018-07-31T00:26:15.390Z,7.10
2018-07-31T00:28:42.813Z,6.50
2018-07-31T00:31:11.600Z,5.77
2018-07-31T00:33:38.968Z,6.23
2018-07-31T00:36:06.315Z,6.40
2018-07-31T00:38:33.906Z,6.40
2018-07-31T00:41:01.601Z,6.23
2018-07-31T00:43:28.967Z,5.80
2018-07-31T00:46:01.131Z,5.67
2018-07-31T00:48:28.687Z,5.83
2018-07-31T00:50:56.219Z,6.50
2018-07-31T00:53:23.726Z,6.00
2018-07-31T00:55:51.090Z,7.30
2018-07-31T00:58:18.602Z,6.43
2018-07-31T01:00:52.064Z,5.70
2018-07-31T01:03:20.120Z,5.93
2018-07-31T01:05:48.397Z,6.27
2018-07-31T01:08:16.863Z,6.40
2018-07-31T01:10:44.282Z,6.27
2018-07-31T01:13:12.574Z,6.37
2018-07-31T01:15:39.984Z,7.20
2018-07-31T01:18:07.277Z,8.03
2018-07-31T01:20:35.712Z,5.80
2018-07-31T01:32:48.450Z,6.27
2018-07-31T01:35:15.789Z,7.70
2018-07-31T01:37:48.083Z,8.10
2018-07-31T01:40:15.457Z,9.27
2018-07-31T01:42:43.515Z,8.60
2018-07-31T01:45:15.438Z,9.20
2018-07-31T01:47:47.738Z,8.97
2018-07-31T01:50:15.259Z,9.37
2018-07-31T01:52:42.679Z,9.60
2018-07-31T01:55:11.901Z,9.90
2018-07-31T01:57:40.030Z,7.80
2018-07-31T02:00:07.465Z,10.37
2018-07-31T02:02:34.848Z,8.87
2018-07-31T02:05:03.621Z,9.47
2018-07-31T02:07:31.044Z,10.70
2018-07-31T02:09:59.143Z,10.70
2018-07-31T02:12:28.819Z,9.10
2018-07-31T02:14:56.304Z,9.47
2018-07-31T02:17:25.382Z,10.87
2018-07-31T02:19:53.472Z,10.07
2018-07-31T02:22:21.651Z,12.37
2018-07-31T02:24:49.363Z,9.97
2018-07-31T02:27:16.732Z,11.47
2018-07-31T02:29:49.604Z,11.37
2018-07-31T02:32:17.900Z,10.90
2018-07-31T02:34:45.775Z,10.57
2018-07-31T02:37:13.252Z,11.30
2018-07-31T02:39:41.110Z,12.47
2018-07-31T02:42:08.533Z,10.80
2018-07-31T02:44:36.767Z,9.77
2018-07-31T02:47:05.035Z,10.80
2018-07-31T02:49:33.405Z,8.67
2018-07-31T02:52:00.891Z,10.80
2018-07-31T02:54:28.435Z,8.90
2018-07-31T02:56:56.002Z,9.13
2018-07-31T02:59:23.638Z,9.20
2018-07-31T03:01:51.034Z,8.37
2018-07-31T03:04:18.377Z,8.00
2018-07-31T03:06:46.492Z,7.40
2018-07-31T03:09:13.847Z,8.40
2018-07-31T03:11:41.246Z,7.50
2018-07-31T03:14:09.222Z,9.10
2018-07-31T03:16:36.563Z,8.33
2018-07-31T03:19:05.007Z,8.30
2018-07-31T03:21:33.955Z,7.27
2018-07-31T03:24:01.303Z,7.10
2018-07-31T03:26:30.460Z,7.47
2018-07-31T03:28:57.835Z,8.30
2018-07-31T03:31:25.223Z,7.80
2018-07-31T03:33:52.730Z,6.93
2018-07-31T03:36:20.128Z,8.10
2018-07-31T03:38:47.658Z,8.30
2018-07-31T03:41:15.642Z,8.00
2018-07-31T03:43:43.189Z,8.70
2018-07-31T03:46:11.261Z,7.87
2018-07-31T03:48:38.813Z,8.00
2018-07-31T03:51:07.275Z,6.97
2018-07-31T03:53:37.489Z,7.50
2018-07-31T03:56:05.045Z,8.60
2018-07-31T03:58:33.683Z,8.67
2018-07-31T04:01:01.132Z,8.63
2018-07-31T04:03:33.792Z,8.50
2018-07-31T04:06:01.198Z,9.07
2018-07-31T04:08:29.121Z,9.87
2018-07-31T04:10:57.401Z,11.70
2018-07-31T04:13:24.901Z,11.00
2018-07-31T04:15:52.262Z,10.27
2018-07-31T04:18:20.439Z,9.37
2018-07-31T04:20:47.846Z,9.77
2018-07-31T04:23:16.327Z,10.07
2018-07-31T04:25:43.657Z,9.67
2018-07-31T04:28:11.626Z,8.80
2018-07-31T04:30:40.442Z,10.83
2018-07-31T04:33:08.878Z,11.20
2018-07-31T04:35:36.303Z,10.93
2018-07-31T04:38:03.778Z,11.27
2018-07-31T04:40:31.769Z,11.53
2018-07-31T04:42:59.140Z,11.80
2018-07-31T04:45:26.546Z,11.93
2018-07-31T04:47:53.885Z,12.40
2018-07-31T04:50:21.255Z,11.27
2018-07-31T04:52:49.402Z,10.20
2018-07-31T04:55:16.845Z,10.23
2018-07-31T04:57:44.235Z,10.10
2018-07-31T05:00:12.356Z,9.67
2018-07-31T05:02:39.920Z,10.37
2018-07-31T05:05:07.346Z,9.13
2018-07-31T05:07:38.076Z,11.57
2018-07-31T05:10:06.599Z,9.90
2018-07-31T05:12:33.917Z,9.63
2018-07-31T05:15:01.286Z,10.27
2018-07-31T05:17:28.628Z,11.17
2018-07-31T05:19:55.947Z,10.10
2018-07-31T05:22:23.246Z,11.47
2018-07-31T05:24:50.726Z,11.73
2018-07-31T05:27:18.062Z,11.37
2018-07-31T05:29:46.390Z,11.20
2018-07-31T05:32:13.829Z,11.63
2018-07-31T05:34:41.157Z,12.27
2018-07-31T05:37:08.534Z,11.50
2018-07-31T05:39:35.863Z,10.33
2018-07-31T05:42:08.479Z,12.10
2018-07-31T05:44:36.436Z,11.00
2018-07-31T05:47:04.369Z,12.17
2018-07-31T05:49:31.676Z,11.53
2018-07-31T05:51:59.808Z,12.43
2018-07-31T05:54:27.153Z,11.33
2018-07-31T05:56:54.726Z,12.70
2018-07-31T05:59:22.700Z,12.50
2018-07-31T06:01:50.827Z,11.93
2018-07-31T06:04:18.836Z,12.10
2018-07-31T06:06:46.192Z,12.50
2018-07-31T06:09:13.627Z,12.20
2018-07-31T06:11:41.774Z,13.50
2018-07-31T06:14:09.614Z,12.90
2018-07-31T06:16:37.313Z,11.57
2018-07-31T06:19:04.628Z,12.17
2018-07-31T06:21:32.169Z,11.73
2018-07-31T06:23:59.565Z,11.57
2018-07-31T06:26:27.905Z,11.43
2018-07-31T06:28:55.627Z,11.23
2018-07-31T06:31:23.006Z,11.70
2018-07-31T06:33:50.352Z,10.83
2018-07-31T06:36:17.694Z,11.67
2018-07-31T06:38:45.414Z,11.00
2018-07-31T06:41:13.465Z,11.43
2018-07-31T06:43:40.854Z,10.23
2018-07-31T06:46:08.148Z,12.13
2018-07-31T06:48:35.479Z,10.07
2018-07-31T06:51:02.794Z,11.47
2018-07-31T06:53:30.122Z,10.30
2018-07-31T06:55:58.056Z,10.50
2018-07-31T06:58:25.363Z,9.97
2018-07-31T07:00:52.721Z,11.13
2018-07-31T07:03:20.037Z,12.10
2018-07-31T07:05:47.774Z,11.67
2018-07-31T07:08:15.135Z,12.97
2018-07-31T07:10:42.469Z,10.43
2018-07-31T07:13:09.803Z,11.27
2018-07-31T07:15:37.671Z,11.27
2018-07-31T07:18:05.206Z,12.13
2018-07-31T07:20:32.976Z,11.90
2018-07-31T07:23:00.303Z,11.23
2018-07-31T07:25:27.678Z,11.47
2018-07-31T07:27:55.554Z,12.40
2018-07-31T07:30:23.035Z,12.07
2018-07-31T07:32:50.638Z,10.70
2018-07-31T07:35:18.091Z,10.93
2018-07-31T07:37:45.388Z,9.80
2018-07-31T07:40:12.826Z,11.77
2018-07-31T07:42:40.126Z,10.50
2018-07-31T07:45:07.506Z,10.90
2018-07-31T07:47:35.000Z,11.67
2018-07-31T07:50:02.262Z,10.57
2018-07-31T07:52:29.662Z,10.10
2018-07-31T07:54:56.984Z,12.10
2018-07-31T07:57:24.336Z,10.00
2018-07-31T07:59:51.986Z,10.27
2018-07-31T08:02:19.260Z,10.70
2018-07-31T08:04:46.759Z,10.57
2018-07-31T08:07:14.142Z,9.90
2018-07-31T08:09:41.536Z,13.30
2018-07-31T08:12:08.883Z,9.43
2018-07-31T08:14:36.233Z,11.30
2018-07-31T08:17:03.650Z,10.20
2018-07-31T08:19:31.519Z,9.87
2018-07-31T08:21:58.862Z,8.33
2018-07-31T08:24:26.250Z,9.17
2018-07-31T08:26:54.042Z,9.83
2018-07-31T08:29:21.377Z,9.03
2018-07-31T08:31:48.687Z,8.70
2018-07-31T08:34:16.067Z,7.43
2018-07-31T08:36:43.414Z,7.63
2018-07-31T08:39:10.985Z,9.70
2018-07-31T08:41:38.587Z,7.20
2018-07-31T08:44:06.226Z,8.10
2018-07-31T08:46:33.658Z,6.10
2018-07-31T08:49:01.043Z,7.40
2018-07-31T08:51:28.451Z,6.77
2018-07-31T08:53:56.151Z,7.27
2018-07-31T08:56:24.043Z,6.40
2018-07-31T08:58:51.793Z,6.00
2018-07-31T09:01:19.204Z,6.17
2018-07-31T09:03:46.845Z,6.80
2018-07-31T09:06:14.214Z,5.30
2018-07-31T09:08:41.718Z,4.30
2018-07-31T09:11:09.335Z,4.30
2018-07-31T09:13:37.005Z,4.60
2018-07-31T09:16:04.381Z,4.57
2018-07-31T09:18:31.768Z,3.93
2018-07-31T09:20:59.282Z,3.57
2018-07-31T09:23:26.551Z,4.40
2018-07-31T09:25:58.205Z,3.53
2018-07-31T09:28:25.474Z,4.37
2018-07-31T09:30:58.757Z,4.47
2018-07-31T09:33:25.987Z,3.50
2018-07-31T09:35:53.280Z,3.47
2018-07-31T09:38:20.606Z,3.73
2018-07-31T09:40:47.890Z,4.10
2018-07-31T09:43:15.327Z,3.37
2018-07-31T09:45:42.710Z,3.87
2018-07-31T09:48:12.373Z,4.17
2018-07-31T09:50:44.852Z,3.87
2018-07-31T09:53:12.463Z,3.20
2018-07-31T10:05:29.314Z,3.13
2018-07-31T10:07:57.163Z,3.30
2018-07-31T10:10:24.426Z,3.47
2018-07-31T10:12:51.898Z,3.30
2018-07-31T10:15:20.395Z,3.30
2018-07-31T10:17:48.317Z,3.57
2018-07-31T10:20:15.995Z,3.80
2018-07-31T10:22:43.447Z,3.40
2018-07-31T10:25:11.046Z,4.00
2018-07-31T10:27:39.778Z,2.83
2018-07-31T10:30:07.662Z,3.80
2018-07-31T10:32:35.947Z,2.80
2018-07-31T10:35:08.148Z,3.87
2018-07-31T10:37:36.303Z,2.80
2018-07-31T10:40:03.864Z,2.90
2018-07-31T10:42:32.174Z,2.97
2018-07-31T10:44:59.695Z,2.67
2018-07-31T10:47:27.369Z,2.43
2018-07-31T10:49:55.875Z,2.60
2018-07-31T10:52:23.540Z,2.53
2018-07-31T10:54:51.806Z,3.00
2018-07-31T10:57:23.505Z,2.77
2018-07-31T10:59:55.184Z,3.00
2018-07-31T11:02:22.567Z,2.23
2018-07-31T11:04:50.649Z,3.07
2018-07-31T11:07:18.476Z,2.70
2018-07-31T11:09:47.038Z,2.50
2018-07-31T11:12:15.002Z,2.50
2018-07-31T11:14:42.454Z,2.30
2018-07-31T11:17:10.001Z,2.50
2018-07-31T11:32:38.709Z,3.50
2018-07-31T11:35:06.127Z,2.50
2018-07-31T11:37:33.477Z,3.37
2018-07-31T11:40:00.872Z,2.60
2018-07-31T11:42:28.181Z,2.60
2018-07-31T11:44:55.650Z,3.07
2018-07-31T11:47:22.994Z,3.20
2018-07-31T11:49:50.318Z,2.90
2018-07-31T11:52:17.664Z,2.60
2018-07-31T11:54:44.962Z,2.67
2018-07-31T11:57:12.299Z,3.30
2018-07-31T11:59:39.611Z,2.60
2018-07-31T12:02:07.222Z,2.97
2018-07-31T12:04:34.574Z,2.90
2018-07-31T12:07:01.872Z,2.50
2018-07-31T12:09:29.362Z,3.30
2018-07-31T12:11:56.742Z,3.10
2018-07-31T12:14:24.934Z,2.80
2018-07-31T12:16:52.263Z,2.53
2018-07-31T12:19:19.622Z,2.80
2018-07-31T12:21:46.922Z,2.60
2018-07-31T12:24:14.454Z,3.30
2018-07-31T12:26:41.895Z,3.30
2018-07-31T12:29:09.238Z,2.40
2018-07-31T12:31:36.720Z,2.70
2018-07-31T12:34:04.059Z,3.47
2018-07-31T12:36:31.371Z,2.83
2018-07-31T12:38:58.684Z,3.20
2018-07-31T12:41:26.003Z,3.13
2018-07-31T12:43:53.379Z,2.97
2018-07-31T12:46:20.787Z,3.10
2018-07-31T12:48:48.212Z,2.47
2018-07-31T12:51:16.054Z,2.20
2018-07-31T12:53:43.523Z,2.20
2018-07-31T12:56:10.871Z,2.20
2018-07-31T12:58:38.156Z,2.30
2018-07-31T13:01:06.333Z,2.50
2018-07-31T13:03:34.098Z,3.00
2018-07-31T13:06:01.419Z,3.00
2018-07-31T13:08:29.388Z,2.63
2018-07-31T13:10:56.807Z,2.60
2018-07-31T13:13:24.222Z,2.60
2018-07-31T13:15:51.517Z,2.67
2018-07-31T13:18:18.820Z,2.70
2018-07-31T13:20:46.184Z,2.70
2018-07-31T13:23:13.505Z,2.40
2018-07-31T13:25:40.874Z,2.30
2018-07-31T13:28:08.256Z,2.60
2018-07-31T13:30:35.594Z,2.30
2018-07-31T13:33:02.910Z,2.73
2018-07-31T13:35:30.818Z,2.60
2018-07-31T13:37:58.301Z,2.80
2018-07-31T13:40:25.631Z,2.27
2018-07-31T13:42:53.126Z,2.70
2018-07-31T13:45:20.428Z,2.43
2018-07-31T13:47:47.781Z,2.23
2018-07-31T13:50:15.074Z,2.07
2018-07-31T13:52:43.022Z,2.60
2018-07-31T13:55:10.435Z,2.53
2018-07-31T13:57:38.003Z,2.77
2018-07-31T14:00:05.342Z,2.40
2018-07-31T14:02:32.692Z,2.43
2018-07-31T14:04:59.994Z,2.37
2018-07-31T14:07:27.445Z,2.30
2018-07-31T14:09:54.729Z,2.23
2018-07-31T14:12:22.626Z,2.50
2018-07-31T14:14:49.885Z,2.70
2018-07-31T14:17:18.022Z,2.77
2018-07-31T14:19:45.363Z,2.60
2018-07-31T14:22:12.831Z,2.27
2018-07-31T14:24:40.510Z,2.40
2018-07-31T14:27:07.840Z,2.63
2018-07-31T14:29:35.111Z,2.80
2018-07-31T14:32:02.496Z,2.33
2018-07-31T14:34:29.850Z,2.60
2018-07-31T14:36:57.173Z,2.30
2018-07-31T14:39:24.724Z,2.40
2018-07-31T14:41:52.090Z,1.97
2018-07-31T14:44:19.375Z,2.60
2018-07-31T14:46:46.800Z,2.50
2018-07-31T14:49:14.110Z,2.47
2018-07-31T14:51:41.514Z,2.40
2018-07-31T14:54:08.861Z,2.40
2018-07-31T14:56:36.176Z,2.60
2018-07-31T14:59:03.614Z,2.30
2018-07-31T15:01:30.997Z,2.33
2018-07-31T15:03:58.415Z,2.10
2018-07-31T15:06:26.571Z,2.20
2018-07-31T15:08:53.880Z,2.13
2018-07-31T15:11:21.330Z,2.20
2018-07-31T15:13:48.548Z,2.17
2018-07-31T15:16:15.905Z,2.00
2018-07-31T15:18:43.379Z,2.50
2018-07-31T15:21:10.717Z,1.97
2018-07-31T15:23:38.111Z,2.20
2018-07-31T15:26:05.487Z,2.20
2018-07-31T15:28:32.817Z,2.30
2018-07-31T15:31:00.205Z,2.20
2018-07-31T15:33:28.030Z,2.33
2018-07-31T15:35:55.827Z,2.50
2018-07-31T15:38:23.175Z,2.20
2018-07-31T15:40:50.547Z,2.07
2018-07-31T15:43:17.860Z,2.20
2018-07-31T15:45:46.112Z,2.30
2018-07-31T15:48:13.554Z,2.03
2018-07-31T15:50:40.718Z,2.20
2018-07-31T15:53:08.112Z,1.93
2018-07-31T15:55:35.414Z,2.20
2018-07-31T15:58:02.722Z,2.33
2018-07-31T16:00:30.323Z,2.33
2018-07-31T16:02:57.800Z,2.10
2018-07-31T16:05:25.131Z,2.40
2018-07-31T16:07:55.144Z,2.30
2018-07-31T16:10:22.550Z,2.93
2018-07-31T16:12:49.962Z,2.20
2018-07-31T16:15:17.419Z,2.10
2018-07-31T16:17:44.933Z,1.90
2018-07-31T16:20:12.351Z,1.80
2018-07-31T16:22:39.782Z,2.10
2018-07-31T16:25:07.195Z,2.20
2018-07-31T16:27:35.127Z,1.80
2018-07-31T16:30:02.468Z,2.23
2018-07-31T16:32:30.404Z,2.23
2018-07-31T16:34:57.924Z,2.60
2018-07-31T16:37:25.330Z,1.90
2018-07-31T16:39:52.867Z,1.80
2018-07-31T16:42:20.178Z,2.00
2018-07-31T16:44:47.550Z,2.20
2018-07-31T16:47:14.866Z,1.70
2018-07-31T16:49:42.208Z,2.47
2018-07-31T16:52:09.578Z,1.90
2018-07-31T16:54:37.047Z,2.10
2018-07-31T16:57:04.379Z,1.90
2018-07-31T16:59:31.816Z,2.00
2018-07-31T17:01:59.445Z,2.00
2018-07-31T17:04:26.911Z,1.90
2018-07-31T17:06:54.251Z,2.30
2018-07-31T17:09:21.642Z,2.13
2018-07-31T17:11:48.997Z,2.33
2018-07-31T17:14:16.389Z,2.40
2018-07-31T17:16:43.866Z,1.90
2018-07-31T17:19:11.237Z,2.53
2018-07-31T17:21:38.819Z,2.60
2018-07-31T17:24:06.304Z,2.10
2018-07-31T17:26:33.813Z,2.00
2018-07-31T17:29:01.975Z,1.97
2018-07-31T17:31:29.386Z,2.30
2018-07-31T17:33:56.825Z,2.13
2018-07-31T17:36:24.648Z,2.33
2018-07-31T17:38:52.090Z,1.90
2018-07-31T17:41:19.475Z,1.87
2018-07-31T17:43:46.881Z,2.10
2018-07-31T17:46:14.276Z,2.00
2018-07-31T17:48:41.793Z,2.07
2018-07-31T17:51:09.239Z,2.13
2018-07-31T17:53:36.742Z,3.23
2018-07-31T17:56:04.211Z,2.20
2018-07-31T17:58:31.668Z,2.40
2018-07-31T18:00:59.074Z,2.33
2018-07-31T18:03:26.617Z,2.47
2018-07-31T18:05:53.983Z,1.80
2018-07-31T18:08:23.545Z,2.53
2018-07-31T18:10:51.930Z,3.13
2018-07-31T18:13:19.939Z,3.47
2018-07-31T18:15:47.607Z,3.37
2018-07-31T18:18:16.051Z,2.80
2018-07-31T18:20:44.023Z,2.93
2018-07-31T18:23:11.525Z,3.67
2018-07-31T18:25:39.838Z,3.60
2018-07-31T18:28:07.234Z,3.60
2018-07-31T18:30:35.177Z,3.70
2018-07-31T18:33:02.646Z,3.93
2018-07-31T18:35:30.076Z,4.30
2018-07-31T18:37:58.296Z,4.83
2018-07-31T18:40:25.736Z,4.17
2018-07-31T18:42:53.848Z,4.50
2018-07-31T18:45:21.391Z,4.83
2018-07-31T18:47:48.730Z,4.60
2018-07-31T18:50:16.518Z,4.87
2018-07-31T18:52:43.959Z,4.20
2018-07-31T18:55:11.447Z,4.30
2018-07-31T18:57:38.990Z,4.50
2018-07-31T19:00:06.483Z,3.97
2018-07-31T19:02:33.902Z,3.90
2018-07-31T19:05:01.454Z,4.10
2018-07-31T19:07:28.877Z,4.83
2018-07-31T19:09:57.217Z,4.67
2018-07-31T19:12:24.667Z,4.47
2018-07-31T19:14:52.256Z,4.57
2018-07-31T19:17:19.708Z,4.33
2018-07-31T19:19:47.142Z,4.50
2018-07-31T19:22:14.708Z,4.20
2018-07-31T19:24:42.973Z,4.57
2018-07-31T19:27:10.347Z,4.33
2018-07-31T19:29:37.888Z,4.30
2018-07-31T19:32:05.329Z,4.37
2018-07-31T19:34:33.175Z,4.30
2018-07-31T19:37:00.588Z,4.10
2018-07-31T19:39:28.894Z,3.77
2018-07-31T19:51:41.353Z,4.27
2018-07-31T19:54:08.731Z,3.50
2018-07-31T19:56:36.121Z,3.40
2018-07-31T19:59:03.680Z,3.37
2018-07-31T20:01:31.711Z,3.50
2018-07-31T20:03:59.269Z,3.40
2018-07-31T20:06:26.667Z,3.43
2018-07-31T20:08:54.092Z,3.90
2018-07-31T20:11:21.607Z,3.83
2018-07-31T20:13:49.248Z,3.17
2018-07-31T20:16:16.885Z,3.67
2018-07-31T20:18:44.414Z,3.57
2018-07-31T20:21:11.883Z,3.73
2018-07-31T20:23:40.250Z,3.47
2018-07-31T20:26:07.734Z,4.20
2018-07-31T20:28:37.160Z,3.33
2018-07-31T20:31:04.654Z,3.77
2018-07-31T20:33:32.520Z,2.80
2018-07-31T20:36:00.874Z,3.10
2018-07-31T20:38:28.444Z,3.33
2018-07-31T20:40:56.133Z,3.57
2018-07-31T20:43:23.631Z,4.10
2018-07-31T20:45:51.045Z,3.20
2018-07-31T20:48:18.568Z,3.50
2018-07-31T20:50:45.898Z,3.47
2018-07-31T20:53:13.228Z,3.63
2018-07-31T20:55:40.708Z,3.60
2018-07-31T20:58:08.188Z,3.67
2018-07-31T21:00:35.641Z,3.80
2018-07-31T21:03:03.090Z,4.27
2018-07-31T21:05:30.432Z,3.37
2018-07-31T21:07:57.781Z,3.30
2018-07-31T21:10:25.202Z,3.03
2018-07-31T21:12:52.753Z,3.50
2018-07-31T21:15:20.274Z,3.30
2018-07-31T21:17:47.763Z,3.30
2018-07-31T21:20:15.493Z,3.93
2018-07-31T21:22:46.972Z,3.57
2018-07-31T21:25:14.748Z,2.90
2018-07-31T21:27:42.179Z,3.40
2018-07-31T21:30:09.684Z,2.90
2018-07-31T21:32:37.088Z,2.87
2018-07-31T21:35:04.619Z,2.80
2018-07-31T21:37:32.648Z,3.30
2018-07-31T21:40:00.238Z,2.93
2018-07-31T21:42:27.865Z,2.73
2018-07-31T21:44:55.283Z,3.40
2018-07-31T21:47:22.988Z,2.80
2018-07-31T21:49:54.341Z,2.50
2018-07-31T21:52:21.734Z,3.50
2018-07-31T21:54:50.024Z,3.23
2018-07-31T21:57:17.331Z,2.70
2018-07-31T21:59:44.817Z,2.10
2018-07-31T22:02:13.093Z,3.07
2018-07-31T22:04:40.603Z,2.53
2018-07-31T22:07:08.642Z,3.00
2018-07-31T22:09:42.145Z,2.40
2018-07-31T22:12:10.654Z,2.17
2018-07-31T22:14:38.057Z,2.57
2018-07-31T22:17:06.735Z,2.70
2018-07-31T22:19:34.536Z,2.70
2018-07-31T22:22:03.022Z,2.40
2018-07-31T22:34:16.189Z,2.70
2018-07-31T22:36:43.606Z,2.63
2018-07-31T22:39:12.235Z,2.90
2018-07-31T22:41:39.731Z,2.80
2018-07-31T22:44:07.684Z,2.90
2018-07-31T22:46:35.097Z,3.80
2018-07-31T22:49:06.695Z,2.80
2018-07-31T22:51:34.838Z,2.83
2018-07-31T22:54:02.262Z,2.80
2018-07-31T22:56:29.752Z,2.10
2018-07-31T22:58:57.974Z,2.80
2018-07-31T23:01:25.969Z,3.10
2018-07-31T23:03:53.950Z,2.70
2018-07-31T23:06:21.335Z,2.90
2018-07-31T23:08:48.929Z,3.00
2018-07-31T23:11:16.706Z,2.57
2018-07-31T23:13:44.182Z,2.93
2018-07-31T23:16:12.160Z,2.57
2018-07-31T23:18:45.193Z,1.93
2018-07-31T23:21:12.612Z,2.50
2018-07-31T23:23:40.667Z,2.57
2018-07-31T23:26:08.437Z,3.50
2018-07-31T23:28:35.881Z,3.10
2018-07-31T23:31:03.243Z,2.87
2018-07-31T23:33:30.655Z,2.87
2018-07-31T23:35:57.983Z,2.47
2018-07-31T23:38:26.326Z,2.87
2018-07-31T23:40:55.165Z,2.50
2018-07-31T23:43:23.276Z,2.20
2018-07-31T23:45:51.744Z,2.60
2018-07-31T23:48:19.052Z,2.70
2018-07-31T23:50:47.152Z,2.80
2018-07-31T23:53:14.536Z,3.17
2018-07-31T23:55:41.989Z,2.20
2018-07-31T23:58:09.617Z,2.40
